createdAt,value
2022-08-29T00:00:31.238Z,1.20
2022-08-29T00:03:00.066Z,1.43
2022-08-29T00:05:30.395Z,1.77
2022-08-29T00:07:59.146Z,1.40
2022-08-29T00:10:26.670Z,1.77
2022-08-29T00:12:55.153Z,1.80
2022-08-29T00:15:26.025Z,1.33
2022-08-29T00:17:52.856Z,1.50
2022-08-29T00:20:22.898Z,1.90
2022-08-29T00:22:58.403Z,1.50
2022-08-29T00:25:26.588Z,1.50
2022-08-29T00:27:53.285Z,2.17
2022-08-29T00:30:21.603Z,1.73
2022-08-29T00:32:48.539Z,1.57
2022-08-29T00:35:26.417Z,1.47
2022-08-29T00:37:54.830Z,1.63
2022-08-29T00:40:30.415Z,1.90
2022-08-29T00:42:57.296Z,1.73
2022-08-29T00:45:24.587Z,1.50
2022-08-29T00:47:55.945Z,1.57
2022-08-29T00:50:27.417Z,1.70
2022-08-29T00:52:57.167Z,1.60
2022-08-29T00:55:27.949Z,1.60
2022-08-29T00:57:58.927Z,1.93
2022-08-29T01:00:26.879Z,1.60
2022-08-29T01:02:54.316Z,1.60
2022-08-29T01:05:22.180Z,1.83
2022-08-29T01:07:48.941Z,1.40
2022-08-29T01:10:36.797Z,2.30
2022-08-29T01:13:05.260Z,1.80
2022-08-29T01:15:33.620Z,1.50
2022-08-29T01:18:02.933Z,2.03
2022-08-29T01:20:54.843Z,1.73
2022-08-29T01:23:32.651Z,1.70
2022-08-29T01:26:01.485Z,1.87
2022-08-29T01:28:32.765Z,1.60
2022-08-29T01:31:04.785Z,1.80
2022-08-29T01:33:59.509Z,1.90
2022-08-29T01:36:50.264Z,1.47
2022-08-29T01:39:18.706Z,1.90
2022-08-29T01:41:45.463Z,1.70
2022-08-29T01:44:19.628Z,1.53
2022-08-29T01:46:51.445Z,1.63
2022-08-29T01:49:19.256Z,1.90
2022-08-29T01:51:45.945Z,1.87
2022-08-29T01:54:13.241Z,1.60
2022-08-29T01:56:43.705Z,1.50
2022-08-29T01:59:12.412Z,1.90
2022-08-29T02:01:42.182Z,1.80
2022-08-29T02:04:09.134Z,1.60
2022-08-29T02:06:36.856Z,1.67
2022-08-29T02:09:04.824Z,1.67
2022-08-29T02:11:32.626Z,1.60
2022-08-29T02:13:59.872Z,1.70
2022-08-29T02:16:28.134Z,1.83
2022-08-29T02:18:55.501Z,1.60
2022-08-29T02:21:25.077Z,1.90
2022-08-29T02:23:52.852Z,1.87
2022-08-29T02:26:21.443Z,1.93
2022-08-29T02:28:50.364Z,1.87
2022-08-29T02:31:17.669Z,1.50
2022-08-29T02:33:44.414Z,1.67
2022-08-29T02:36:10.996Z,1.90
2022-08-29T02:38:37.690Z,1.90
2022-08-29T02:41:04.437Z,1.73
2022-08-29T02:43:31.111Z,1.70
2022-08-29T02:45:58.125Z,1.60
2022-08-29T02:48:25.394Z,1.70
2022-08-29T02:50:54.258Z,1.97
2022-08-29T02:53:23.335Z,1.33
2022-08-29T02:55:51.937Z,2.00
2022-08-29T02:58:20.582Z,1.60
2022-08-29T03:00:47.443Z,1.70
2022-08-29T03:03:14.224Z,2.37
2022-08-29T03:05:41.407Z,1.13
2022-08-29T03:08:10.905Z,1.63
2022-08-29T03:10:37.974Z,1.70
2022-08-29T03:13:04.594Z,1.73
2022-08-29T03:15:31.325Z,1.73
2022-08-29T03:17:58.204Z,1.80
2022-08-29T03:20:25.472Z,1.87
2022-08-29T03:22:54.034Z,1.90
2022-08-29T03:25:22.521Z,1.87
2022-08-29T03:27:49.140Z,2.10
2022-08-29T03:30:18.340Z,1.73
2022-08-29T03:32:45.822Z,2.10
2022-08-29T03:35:13.866Z,1.93
2022-08-29T03:37:40.598Z,1.87
2022-08-29T03:40:09.132Z,1.90
2022-08-29T03:42:36.175Z,1.90
2022-08-29T03:45:06.097Z,1.80
2022-08-29T03:47:32.852Z,1.90
2022-08-29T03:49:59.454Z,2.20
2022-08-29T03:52:26.242Z,1.53
2022-08-29T03:54:53.135Z,2.20
2022-08-29T03:57:20.473Z,1.80
2022-08-29T03:59:47.997Z,2.43
2022-08-29T04:02:20.676Z,2.10
2022-08-29T04:05:07.966Z,2.13
2022-08-29T04:07:56.474Z,2.43
2022-08-29T04:10:32.675Z,2.03
2022-08-29T04:13:00.020Z,1.73
2022-08-29T04:15:28.536Z,2.40
2022-08-29T04:17:57.477Z,2.00
2022-08-29T04:20:27.004Z,1.90
2022-08-29T04:22:55.789Z,1.83
2022-08-29T04:25:24.897Z,1.80
2022-08-29T04:27:52.099Z,2.00
2022-08-29T04:30:22.422Z,2.30
2022-08-29T04:32:49.177Z,2.13
2022-08-29T04:35:16.461Z,2.07
2022-08-29T04:37:43.706Z,2.13
2022-08-29T04:40:15.594Z,2.20
2022-08-29T04:42:43.668Z,1.90
2022-08-29T04:45:12.598Z,2.30
2022-08-29T04:47:45.748Z,2.40
2022-08-29T04:50:16.356Z,2.07
2022-08-29T04:52:43.765Z,2.20
2022-08-29T04:55:11.658Z,2.20
2022-08-29T04:57:38.906Z,2.20
2022-08-29T05:00:10.085Z,2.50
2022-08-29T05:02:36.736Z,2.70
2022-08-29T05:05:03.989Z,2.23
2022-08-29T05:07:30.590Z,2.80
2022-08-29T05:10:02.516Z,2.40
2022-08-29T05:12:30.593Z,2.40
2022-08-29T05:14:57.647Z,3.47
2022-08-29T05:17:24.936Z,2.40
2022-08-29T05:19:52.447Z,2.33
2022-08-29T05:22:20.569Z,2.53
2022-08-29T05:24:48.842Z,3.07
2022-08-29T05:27:18.296Z,2.60
2022-08-29T05:29:47.741Z,2.80
2022-08-29T05:32:14.847Z,2.40
2022-08-29T05:34:43.278Z,2.63
2022-08-29T05:37:14.823Z,2.73
2022-08-29T05:39:42.548Z,2.40
2022-08-29T05:42:11.333Z,3.33
2022-08-29T05:44:38.901Z,3.13
2022-08-29T05:47:08.633Z,2.93
2022-08-29T05:49:37.228Z,3.03
2022-08-29T05:52:04.446Z,2.90
2022-08-29T05:54:35.362Z,2.70
2022-08-29T05:57:02.447Z,3.37
2022-08-29T05:59:29.259Z,3.73
2022-08-29T06:01:55.935Z,3.13
2022-08-29T06:04:22.609Z,3.27
2022-08-29T06:06:50.877Z,3.60
2022-08-29T06:09:17.893Z,3.27
2022-08-29T06:11:48.518Z,3.73
2022-08-29T06:14:16.369Z,3.33
2022-08-29T06:16:43.360Z,3.60
2022-08-29T06:19:10.038Z,3.87
2022-08-29T06:21:36.660Z,3.20
2022-08-29T06:24:04.298Z,2.60
2022-08-29T06:26:31.637Z,3.07
2022-08-29T06:28:59.084Z,3.43
2022-08-29T06:31:29.068Z,2.73
2022-08-29T06:33:58.738Z,2.70
2022-08-29T06:36:26.964Z,3.30
2022-08-29T06:38:56.525Z,3.00
2022-08-29T06:41:24.769Z,2.87
2022-08-29T06:43:51.659Z,3.60
2022-08-29T06:46:39.064Z,3.20
2022-08-29T06:49:10.149Z,3.00
2022-08-29T06:51:38.579Z,2.77
2022-08-29T06:54:08.546Z,3.10
2022-08-29T06:56:37.476Z,3.53
2022-08-29T06:59:05.112Z,2.50
2022-08-29T07:01:32.364Z,2.57
2022-08-29T07:04:01.838Z,3.10
2022-08-29T07:06:28.653Z,3.17
2022-08-29T07:08:56.624Z,2.87
2022-08-29T07:11:28.104Z,2.93
2022-08-29T07:13:57.929Z,2.33
2022-08-29T07:16:24.634Z,2.93
2022-08-29T07:18:53.304Z,3.47
2022-08-29T07:21:21.898Z,3.30
2022-08-29T07:23:53.221Z,3.67
2022-08-29T07:26:23.452Z,3.00
2022-08-29T07:28:52.494Z,2.77
2022-08-29T07:31:19.304Z,3.13
2022-08-29T07:33:46.388Z,3.13
2022-08-29T07:36:13.082Z,2.80
2022-08-29T07:38:39.736Z,2.97
2022-08-29T07:41:09.174Z,2.63
2022-08-29T07:43:36.366Z,2.80
2022-08-29T07:46:07.756Z,3.17
2022-08-29T07:48:34.437Z,4.80
2022-08-29T07:51:01.346Z,4.53
2022-08-29T07:53:28.197Z,3.37
2022-08-29T07:55:54.813Z,2.90
2022-08-29T07:58:21.400Z,3.23
2022-08-29T08:00:48.109Z,3.30
2022-08-29T08:03:16.129Z,2.67
2022-08-29T08:05:42.909Z,2.37
2022-08-29T08:08:15.045Z,2.43
2022-08-29T08:10:42.500Z,2.10
2022-08-29T08:13:09.245Z,2.30
2022-08-29T08:15:38.398Z,2.28
2022-08-29T08:18:05.683Z,2.97
2022-08-29T08:20:32.747Z,2.00
2022-08-29T08:22:59.612Z,1.70
2022-08-29T08:25:26.529Z,3.33
2022-08-29T08:27:53.748Z,2.30
2022-08-29T08:30:21.219Z,2.00
2022-08-29T08:32:52.731Z,1.90
2022-08-29T08:35:22.923Z,1.97
2022-08-29T08:37:49.778Z,2.20
2022-08-29T08:40:23.296Z,2.20
2022-08-29T08:43:00.293Z,1.77
2022-08-29T08:45:38.690Z,1.77
2022-08-29T08:48:19.851Z,7.03
2022-08-29T08:51:20.362Z,1.70
2022-08-29T08:53:51.473Z,1.50
2022-08-29T08:57:10.827Z,2.23
2022-08-29T08:59:43.674Z,1.97
2022-08-29T09:02:48.941Z,1.50
2022-08-29T09:05:21.381Z,1.60
2022-08-29T09:08:14.734Z,1.73
2022-08-29T09:10:59.176Z,1.70
2022-08-29T09:13:45.910Z,1.60
2022-08-29T09:16:27.545Z,1.60
2022-08-29T09:18:59.557Z,1.50
2022-08-29T09:21:42.897Z,1.50
2022-08-29T09:24:17.105Z,1.73
2022-08-29T09:26:44.474Z,1.90
2022-08-29T09:29:13.726Z,1.67
2022-08-29T09:31:41.021Z,2.00
2022-08-29T09:34:12.783Z,1.53
2022-08-29T09:36:47.734Z,1.67
2022-08-29T09:39:17.449Z,1.60
2022-08-29T09:41:46.165Z,1.90
2022-08-29T09:44:30.682Z,1.60
2022-08-29T09:47:19.114Z,1.53
2022-08-29T09:50:10.853Z,1.83
2022-08-29T09:52:40.328Z,1.80
2022-08-29T09:55:18.436Z,1.80
2022-08-29T09:57:53.278Z,1.47
2022-08-29T10:00:27.507Z,1.90
2022-08-29T10:02:58.805Z,1.30
2022-08-29T10:05:44.375Z,1.57
2022-08-29T10:08:28.734Z,1.57
2022-08-29T10:11:00.033Z,1.52
2022-08-29T10:13:34.612Z,1.23
2022-08-29T10:16:17.949Z,1.15
2022-08-29T10:18:58.866Z,1.38
2022-08-29T10:21:37.290Z,1.20
2022-08-29T10:24:21.647Z,1.20
2022-08-29T10:27:00.317Z,1.20
2022-08-29T10:29:38.988Z,1.27
2022-08-29T10:32:26.655Z,1.20
2022-08-29T10:35:15.098Z,1.20
2022-08-29T10:38:07.545Z,1.03
2022-08-29T10:40:43.301Z,1.27
2022-08-29T10:43:43.730Z,1.37
2022-08-29T10:46:25.979Z,1.10
2022-08-29T10:49:02.031Z,1.60
2022-08-29T10:51:33.544Z,1.17
2022-08-29T10:54:32.334Z,1.00
2022-08-29T10:57:01.674Z,1.33
2022-08-29T10:59:42.865Z,1.30
2022-08-29T11:02:24.629Z,1.10
2022-08-29T11:04:55.057Z,1.20
2022-08-29T11:07:53.755Z,1.13
2022-08-29T11:10:27.440Z,1.10
2022-08-29T11:13:20.756Z,1.40
2022-08-29T11:16:22.431Z,1.40
2022-08-29T11:19:00.272Z,1.37
2022-08-29T11:21:45.893Z,1.10
2022-08-29T11:24:16.844Z,1.00
2022-08-29T11:26:43.401Z,1.33
2022-08-29T11:29:28.816Z,1.10
2022-08-29T11:32:14.932Z,1.20
2022-08-29T11:35:05.493Z,1.30
2022-08-29T11:37:56.908Z,1.10
2022-08-29T11:40:47.640Z,0.90
2022-08-29T11:43:22.830Z,1.00
2022-08-29T11:46:01.845Z,1.15
2022-08-29T11:48:42.529Z,1.50
2022-08-29T11:51:27.461Z,0.95
2022-08-29T11:53:54.725Z,1.02
2022-08-29T11:56:28.530Z,1.30
2022-08-29T11:58:57.854Z,1.17
2022-08-29T12:01:37.723Z,0.85
2022-08-29T12:04:10.042Z,1.30
2022-08-29T12:07:01.050Z,1.25
2022-08-29T12:09:37.454Z,1.00
2022-08-29T12:12:04.411Z,1.10
2022-08-29T12:14:38.067Z,1.05
2022-08-29T12:17:51.160Z,1.05
2022-08-29T12:20:30.305Z,1.05
2022-08-29T12:23:18.557Z,1.20
2022-08-29T12:26:09.899Z,0.98
2022-08-29T12:28:56.313Z,1.10
2022-08-29T12:32:23.534Z,1.20
2022-08-29T12:35:05.573Z,1.20
2022-08-29T12:37:36.851Z,1.00
2022-08-29T12:40:09.009Z,1.27
2022-08-29T12:43:02.616Z,1.02
2022-08-29T12:45:31.709Z,1.10
2022-08-29T12:48:01.861Z,1.25
2022-08-29T12:50:51.134Z,1.20
2022-08-29T12:53:27.643Z,1.20
2022-08-29T12:56:00.761Z,1.02
2022-08-29T12:58:38.794Z,1.00
2022-08-29T13:01:16.717Z,1.23
2022-08-29T13:03:54.389Z,1.10
2022-08-29T13:06:21.018Z,1.20
2022-08-29T13:08:49.214Z,1.27
2022-08-29T13:11:20.671Z,1.10
2022-08-29T13:13:47.750Z,1.27
2022-08-29T13:16:28.504Z,1.23
2022-08-29T13:19:10.069Z,1.17
2022-08-29T13:21:38.438Z,1.17
2022-08-29T13:24:12.584Z,1.25
2022-08-29T13:27:02.971Z,1.27
2022-08-29T13:29:41.772Z,1.13
2022-08-29T13:32:28.677Z,1.10
2022-08-29T13:35:04.882Z,1.42
2022-08-29T13:37:40.362Z,1.20
2022-08-29T13:40:28.804Z,1.15
2022-08-29T13:42:56.742Z,1.10
2022-08-29T13:45:25.032Z,1.15
2022-08-29T13:47:57.798Z,1.20
2022-08-29T13:50:25.868Z,0.93
2022-08-29T13:52:54.766Z,1.10
2022-08-29T13:55:21.855Z,1.17
2022-08-29T13:57:51.974Z,1.00
2022-08-29T14:00:19.745Z,1.13
2022-08-29T14:02:58.859Z,1.20
2022-08-29T14:05:25.489Z,1.05
2022-08-29T14:07:52.165Z,1.00
2022-08-29T14:10:19.181Z,1.35
2022-08-29T14:12:45.966Z,1.20
2022-08-29T14:15:17.489Z,1.20
2022-08-29T14:17:45.934Z,1.30
2022-08-29T14:20:13.781Z,1.00
2022-08-29T14:22:40.809Z,1.20
2022-08-29T14:25:09.830Z,0.88
2022-08-29T14:27:37.986Z,1.00
2022-08-29T14:30:07.271Z,1.05
2022-08-29T14:32:34.021Z,1.10
2022-08-29T14:35:00.702Z,1.20
2022-08-29T14:37:27.305Z,1.65
2022-08-29T14:39:53.948Z,1.00
2022-08-29T14:42:20.588Z,1.30
2022-08-29T14:44:47.247Z,1.00
2022-08-29T14:47:13.912Z,1.20
2022-08-29T14:49:40.869Z,1.10
2022-08-29T14:52:07.549Z,1.17
2022-08-29T14:54:34.821Z,1.00
2022-08-29T14:57:01.473Z,0.90
2022-08-29T14:59:28.228Z,1.20
2022-08-29T15:01:55.489Z,0.87
2022-08-29T15:04:36.252Z,1.20
2022-08-29T15:07:09.848Z,1.03
2022-08-29T15:09:36.995Z,1.00
2022-08-29T15:12:04.292Z,1.13
2022-08-29T15:14:30.975Z,1.03
2022-08-29T15:16:57.589Z,1.00
2022-08-29T15:20:03.641Z,1.17
2022-08-29T15:22:11.564Z,1.10
2022-08-29T15:24:39.160Z,0.90
2022-08-29T15:27:06.457Z,1.00
2022-08-29T15:29:33.987Z,1.17
2022-08-29T15:32:00.946Z,1.00
2022-08-29T15:34:28.646Z,1.00
2022-08-29T15:36:56.372Z,1.00
2022-08-29T15:39:25.381Z,0.90
2022-08-29T15:41:52.079Z,0.90
2022-08-29T15:44:18.782Z,1.00
2022-08-29T15:46:50.297Z,0.80
2022-08-29T15:49:18.938Z,0.90
2022-08-29T15:51:45.859Z,0.90
2022-08-29T15:54:13.158Z,0.70
2022-08-29T15:56:39.978Z,0.90
2022-08-29T15:59:09.334Z,0.60
2022-08-29T16:01:41.491Z,0.73
2022-08-29T16:04:09.190Z,0.60
2022-08-29T16:06:36.510Z,0.70
2022-08-29T16:09:11.010Z,0.80
2022-08-29T16:11:42.570Z,0.60
2022-08-29T16:16:57.216Z,0.90
2022-08-29T16:19:23.825Z,0.80
2022-08-29T16:21:50.826Z,0.80
2022-08-29T16:24:18.287Z,1.07
2022-08-29T16:26:45.863Z,0.80
2022-08-29T16:29:12.919Z,0.80
2022-08-29T16:31:39.737Z,1.00
2022-08-29T16:34:06.393Z,0.80
2022-08-29T16:36:39.157Z,1.00
2022-08-29T16:39:06.288Z,0.97
2022-08-29T16:41:32.965Z,1.00
2022-08-29T16:43:59.593Z,0.80
2022-08-29T16:46:27.921Z,1.10
2022-08-29T16:48:58.148Z,1.30
2022-08-29T16:51:26.585Z,0.80
2022-08-29T16:53:53.656Z,0.90
2022-08-29T16:56:20.932Z,1.10
2022-08-29T16:59:01.394Z,1.00
2022-08-29T17:01:37.283Z,1.10
2022-08-29T17:04:07.852Z,1.27
2022-08-29T17:06:35.252Z,1.10
2022-08-29T17:09:05.384Z,1.50
2022-08-29T17:11:36.147Z,1.20
2022-08-29T17:14:02.738Z,1.50
2022-08-29T17:16:29.568Z,1.33
2022-08-29T17:18:56.301Z,1.40
2022-08-29T17:21:22.906Z,1.40
2022-08-29T17:23:49.840Z,1.33
2022-08-29T17:26:17.226Z,1.30
2022-08-29T17:28:45.974Z,1.60
2022-08-29T17:31:13.630Z,1.37
2022-08-29T17:33:41.154Z,1.60
2022-08-29T17:36:09.025Z,1.60
2022-08-29T17:38:36.560Z,1.60
2022-08-29T17:41:14.671Z,1.80
2022-08-29T17:43:42.896Z,1.60
2022-08-29T17:46:09.849Z,1.33
2022-08-29T17:48:36.711Z,1.50
2022-08-29T17:51:03.414Z,1.70
2022-08-29T17:53:32.536Z,1.60
2022-08-29T17:56:17.789Z,1.60
2022-08-29T17:58:44.990Z,1.73
2022-08-29T18:01:16.320Z,1.23
2022-08-29T18:03:45.012Z,1.60
2022-08-29T18:06:12.613Z,1.57
2022-08-29T18:08:42.110Z,1.43
2022-08-29T18:11:15.593Z,1.23
2022-08-29T18:13:42.218Z,1.50
2022-08-29T18:16:10.314Z,1.50
2022-08-29T18:18:38.205Z,1.23
2022-08-29T18:21:04.989Z,1.70
2022-08-29T18:23:31.743Z,1.50
2022-08-29T18:25:58.347Z,1.50
2022-08-29T18:28:25.015Z,1.40
2022-08-29T18:30:51.768Z,1.50
2022-08-29T18:33:18.849Z,1.43
2022-08-29T18:35:45.749Z,1.37
2022-08-29T18:38:13.090Z,1.30
2022-08-29T18:40:40.146Z,1.37
2022-08-29T18:43:08.120Z,1.20
2022-08-29T18:45:37.559Z,1.30
2022-08-29T18:48:05.117Z,1.30
2022-08-29T18:50:34.535Z,1.27
2022-08-29T18:53:14.256Z,1.27
2022-08-29T18:55:47.273Z,1.40
2022-08-29T18:58:18.602Z,1.40
2022-08-29T19:00:45.501Z,1.50
2022-08-29T19:03:12.649Z,1.40
2022-08-29T19:05:42.116Z,1.33
2022-08-29T19:08:11.583Z,1.53
2022-08-29T19:10:38.731Z,1.50
2022-08-29T19:13:08.026Z,1.87
2022-08-29T19:15:41.220Z,1.40
2022-08-29T19:18:09.737Z,1.50
2022-08-29T19:20:55.620Z,1.43
2022-08-29T19:23:22.528Z,1.37
2022-08-29T19:25:50.053Z,1.77
2022-08-29T19:28:19.630Z,1.30
2022-08-29T19:30:47.613Z,1.23
2022-08-29T19:33:17.787Z,1.30
2022-08-29T19:35:45.686Z,1.60
2022-08-29T19:38:12.591Z,1.30
2022-08-29T19:40:40.049Z,1.40
2022-08-29T19:43:13.652Z,1.40
2022-08-29T19:45:42.484Z,1.70
2022-08-29T19:48:10.704Z,1.30
2022-08-29T19:50:41.977Z,1.30
2022-08-29T19:53:09.950Z,1.33
2022-08-29T19:55:39.140Z,1.50
2022-08-29T19:58:06.932Z,1.70
2022-08-29T20:00:34.283Z,1.57
2022-08-29T20:03:01.008Z,1.47
2022-08-29T20:05:27.835Z,1.70
2022-08-29T20:07:54.574Z,1.43
2022-08-29T20:10:24.894Z,1.40
2022-08-29T20:12:53.294Z,1.23
2022-08-29T20:15:21.793Z,1.53
2022-08-29T20:17:58.838Z,1.50
2022-08-29T20:20:36.493Z,1.40
2022-08-29T20:23:04.705Z,1.60
2022-08-29T20:25:32.509Z,1.40
2022-08-29T20:27:59.865Z,1.87
2022-08-29T20:30:28.613Z,1.87
2022-08-29T20:32:55.301Z,1.63
2022-08-29T20:35:42.000Z,1.77
2022-08-29T20:38:10.289Z,1.83
2022-08-29T20:40:46.418Z,1.83
2022-08-29T20:43:14.568Z,1.40
2022-08-29T20:45:42.256Z,1.40
2022-08-29T20:48:10.167Z,1.30
2022-08-29T20:50:37.280Z,1.70
2022-08-29T20:53:05.462Z,1.50
2022-08-29T20:55:32.186Z,1.57
2022-08-29T20:57:58.778Z,1.60
2022-08-29T21:00:25.448Z,1.77
2022-08-29T21:03:10.518Z,1.37
2022-08-29T21:05:43.701Z,1.43
2022-08-29T21:08:19.612Z,1.73
2022-08-29T21:10:47.578Z,1.60
2022-08-29T21:13:15.164Z,1.77
2022-08-29T21:15:43.239Z,1.43
2022-08-29T21:18:12.077Z,1.60
2022-08-29T21:20:53.620Z,1.93
2022-08-29T21:23:22.162Z,1.60
2022-08-29T21:25:56.358Z,1.87
2022-08-29T21:28:24.792Z,1.57
2022-08-29T21:30:51.840Z,1.53
2022-08-29T21:33:19.100Z,1.40
2022-08-29T21:35:46.024Z,1.50
2022-08-29T21:38:16.897Z,1.50
2022-08-29T21:40:50.558Z,1.47
2022-08-29T21:43:19.351Z,1.10
2022-08-29T21:45:47.093Z,1.77
2022-08-29T21:48:13.693Z,1.40
2022-08-29T21:50:40.338Z,1.50
2022-08-29T21:53:07.401Z,1.70
2022-08-29T21:55:34.103Z,1.27
2022-08-29T21:58:01.625Z,1.50
2022-08-29T22:00:32.416Z,1.30
2022-08-29T22:03:05.157Z,1.60
2022-08-29T22:05:32.745Z,1.70
2022-08-29T22:08:02.797Z,1.33
2022-08-29T22:10:34.083Z,1.23
2022-08-29T22:13:02.494Z,1.70
2022-08-29T22:15:48.108Z,1.50
2022-08-29T22:18:15.661Z,1.40
2022-08-29T22:20:43.940Z,1.30
2022-08-29T22:23:10.745Z,1.47
2022-08-29T22:25:37.762Z,1.50
2022-08-29T22:28:05.345Z,1.43
2022-08-29T22:30:32.732Z,1.40
2022-08-29T22:33:01.238Z,1.53
2022-08-29T22:35:28.359Z,1.87
2022-08-29T22:37:55.313Z,1.60
2022-08-29T22:40:22.675Z,1.50
2022-08-29T22:42:49.602Z,1.73
2022-08-29T22:45:18.247Z,1.30
2022-08-29T22:47:46.646Z,1.30
2022-08-29T22:50:17.801Z,1.37
2022-08-29T22:52:45.561Z,1.47
2022-08-29T22:55:15.288Z,1.40
2022-08-29T22:57:45.028Z,1.53
2022-08-29T23:00:14.834Z,1.37
2022-08-29T23:02:42.555Z,1.40
2022-08-29T23:05:10.218Z,1.23
2022-08-29T23:07:37.311Z,1.47
2022-08-29T23:10:05.601Z,1.70
2022-08-29T23:12:32.266Z,1.57
2022-08-29T23:14:58.908Z,1.90
2022-08-29T23:17:25.550Z,1.50
2022-08-29T23:19:52.344Z,1.60
2022-08-29T23:22:20.630Z,1.40
2022-08-29T23:24:55.735Z,1.67
2022-08-29T23:27:25.554Z,1.33
2022-08-29T23:29:52.608Z,1.80
2022-08-29T23:32:19.204Z,1.37
2022-08-29T23:34:45.881Z,1.70
2022-08-29T23:37:12.505Z,1.53
2022-08-29T23:39:39.264Z,1.47
2022-08-29T23:42:06.312Z,1.80
2022-08-29T23:44:33.244Z,1.80
2022-08-29T23:47:00.139Z,1.67
2022-08-29T23:49:26.781Z,1.67
2022-08-29T23:51:53.400Z,1.50
2022-08-29T23:54:19.989Z,1.77
2022-08-29T23:56:46.659Z,1.50
2022-08-29T23:59:33.262Z,1.57
